sensor_id;sensor_type;location;lat;lon;timestamp;temperature;humidity
79187;SHT31;68762;51.980;5.646;2024-01-16T00:02:13;2.7;72.5
79187;SHT31;68762;51.980;5.646;2024-01-16T00:04:42;2.7;72.3
79187;SHT31;68762;51.980;5.646;2024-01-16T00:07:10;2.7;72.2
79187;SHT31;68762;51.980;5.646;2024-01-16T00:09:39;2.7;71.9
79187;SHT31;68762;51.980;5.646;2024-01-16T00:12:08;2.7;71.5
79187;SHT31;68762;51.980;5.646;2024-01-16T00:14:37;2.6;71.4
79187;SHT31;68762;51.980;5.646;2024-01-16T00:17:06;2.6;71.4
79187;SHT31;68762;51.980;5.646;2024-01-16T00:19:35;2.6;71.5
79187;SHT31;68762;51.980;5.646;2024-01-16T00:22:04;2.6;71.5
79187;SHT31;68762;51.980;5.646;2024-01-16T00:24:34;2.6;71.5
79187;SHT31;68762;51.980;5.646;2024-01-16T00:27:03;2.6;71.6
79187;SHT31;68762;51.980;5.646;2024-01-16T00:29:32;2.6;71.7
79187;SHT31;68762;51.980;5.646;2024-01-16T00:32:00;2.6;71.6
79187;SHT31;68762;51.980;5.646;2024-01-16T00:34:29;2.5;71.7
79187;SHT31;68762;51.980;5.646;2024-01-16T00:36:57;2.5;71.8
79187;SHT31;68762;51.980;5.646;2024-01-16T00:39:25;2.5;71.9
79187;SHT31;68762;51.980;5.646;2024-01-16T00:41:55;2.5;72.0
79187;SHT31;68762;51.980;5.646;2024-01-16T00:44:24;2.5;72.0
79187;SHT31;68762;51.980;5.646;2024-01-16T00:46:52;2.5;72.3
79187;SHT31;68762;51.980;5.646;2024-01-16T00:49:21;2.5;72.4
79187;SHT31;68762;51.980;5.646;2024-01-16T00:51:49;2.5;72.3
79187;SHT31;68762;51.980;5.646;2024-01-16T00:54:18;2.5;72.5
79187;SHT31;68762;51.980;5.646;2024-01-16T00:56:47;2.5;72.6
79187;SHT31;68762;51.980;5.646;2024-01-16T00:59:16;2.5;72.9
79187;SHT31;68762;51.980;5.646;2024-01-16T01:01:44;2.5;73.0
79187;SHT31;68762;51.980;5.646;2024-01-16T01:04:13;2.5;73.2
79187;SHT31;68762;51.980;5.646;2024-01-16T01:06:41;2.5;73.1
79187;SHT31;68762;51.980;5.646;2024-01-16T01:09:10;2.6;72.7
79187;SHT31;68762;51.980;5.646;2024-01-16T01:11:39;2.6;72.5
79187;SHT31;68762;51.980;5.646;2024-01-16T01:14:08;2.6;72.7
79187;SHT31;68762;51.980;5.646;2024-01-16T01:16:37;2.6;72.9
79187;SHT31;68762;51.980;5.646;2024-01-16T01:19:05;2.6;72.8
79187;SHT31;68762;51.980;5.646;2024-01-16T01:21:35;2.6;72.7
79187;SHT31;68762;51.980;5.646;2024-01-16T01:24:04;2.6;72.6
79187;SHT31;68762;51.980;5.646;2024-01-16T01:26:32;2.6;72.5
79187;SHT31;68762;51.980;5.646;2024-01-16T01:29:01;2.5;72.5
79187;SHT31;68762;51.980;5.646;2024-01-16T01:31:30;2.5;72.4
79187;SHT31;68762;51.980;5.646;2024-01-16T01:33:58;2.5;72.2
79187;SHT31;68762;51.980;5.646;2024-01-16T01:36:27;2.5;72.1
79187;SHT31;68762;51.980;5.646;2024-01-16T01:38:56;2.5;72.1
79187;SHT31;68762;51.980;5.646;2024-01-16T01:41:24;2.5;72.3
79187;SHT31;68762;51.980;5.646;2024-01-16T01:43:53;2.5;72.3
79187;SHT31;68762;51.980;5.646;2024-01-16T01:46:22;2.5;72.3
79187;SHT31;68762;51.980;5.646;2024-01-16T01:48:51;2.5;72.5
79187;SHT31;68762;51.980;5.646;2024-01-16T01:51:20;2.5;72.6
79187;SHT31;68762;51.980;5.646;2024-01-16T01:53:51;2.5;72.8
79187;SHT31;68762;51.980;5.646;2024-01-16T01:56:20;2.5;73.0
79187;SHT31;68762;51.980;5.646;2024-01-16T01:58:53;2.5;73.1
79187;SHT31;68762;51.980;5.646;2024-01-16T02:01:24;2.5;73.4
79187;SHT31;68762;51.980;5.646;2024-01-16T02:03:55;2.5;73.7
79187;SHT31;68762;51.980;5.646;2024-01-16T02:06:26;2.5;73.8
79187;SHT31;68762;51.980;5.646;2024-01-16T02:08:55;2.5;73.9
79187;SHT31;68762;51.980;5.646;2024-01-16T02:11:23;2.5;74.0
79187;SHT31;68762;51.980;5.646;2024-01-16T02:13:52;2.5;74.2
79187;SHT31;68762;51.980;5.646;2024-01-16T02:16:22;2.5;74.2
79187;SHT31;68762;51.980;5.646;2024-01-16T02:18:52;2.5;74.3
79187;SHT31;68762;51.980;5.646;2024-01-16T02:21:22;2.5;74.5
79187;SHT31;68762;51.980;5.646;2024-01-16T02:23:54;2.5;74.7
79187;SHT31;68762;51.980;5.646;2024-01-16T02:26:22;2.5;74.7
79187;SHT31;68762;51.980;5.646;2024-01-16T02:28:51;2.6;74.7
79187;SHT31;68762;51.980;5.646;2024-01-16T02:31:19;2.6;74.7
79187;SHT31;68762;51.980;5.646;2024-01-16T02:33:48;2.6;74.6
79187;SHT31;68762;51.980;5.646;2024-01-16T02:36:16;2.6;74.7
79187;SHT31;68762;51.980;5.646;2024-01-16T02:38:45;2.7;74.8
79187;SHT31;68762;51.980;5.646;2024-01-16T02:41:16;2.7;74.9
79187;SHT31;68762;51.980;5.646;2024-01-16T02:43:44;2.7;75.0
79187;SHT31;68762;51.980;5.646;2024-01-16T02:46:13;2.7;75.1
79187;SHT31;68762;51.980;5.646;2024-01-16T02:48:45;2.8;75.2
79187;SHT31;68762;51.980;5.646;2024-01-16T02:51:13;2.8;75.2
79187;SHT31;68762;51.980;5.646;2024-01-16T02:53:42;2.8;75.2
79187;SHT31;68762;51.980;5.646;2024-01-16T02:56:10;2.9;75.1
79187;SHT31;68762;51.980;5.646;2024-01-16T02:58:41;2.9;75.0
79187;SHT31;68762;51.980;5.646;2024-01-16T03:01:09;2.9;74.9
79187;SHT31;68762;51.980;5.646;2024-01-16T03:03:38;3.0;74.7
79187;SHT31;68762;51.980;5.646;2024-01-16T03:06:08;3.0;74.4
79187;SHT31;68762;51.980;5.646;2024-01-16T03:08:37;3.0;74.1
79187;SHT31;68762;51.980;5.646;2024-01-16T03:11:05;3.1;74.0
79187;SHT31;68762;51.980;5.646;2024-01-16T03:13:34;3.1;73.8
79187;SHT31;68762;51.980;5.646;2024-01-16T03:16:06;3.2;73.5
79187;SHT31;68762;51.980;5.646;2024-01-16T03:18:34;3.2;73.2
79187;SHT31;68762;51.980;5.646;2024-01-16T03:21:03;3.2;73.1
79187;SHT31;68762;51.980;5.646;2024-01-16T03:23:32;3.2;73.1
79187;SHT31;68762;51.980;5.646;2024-01-16T03:26:00;3.2;72.9
79187;SHT31;68762;51.980;5.646;2024-01-16T03:28:30;3.3;72.6
79187;SHT31;68762;51.980;5.646;2024-01-16T03:30:58;3.3;72.6
79187;SHT31;68762;51.980;5.646;2024-01-16T03:33:28;3.3;72.3
79187;SHT31;68762;51.980;5.646;2024-01-16T03:35:56;3.3;72.5
79187;SHT31;68762;51.980;5.646;2024-01-16T03:38:26;3.3;72.6
79187;SHT31;68762;51.980;5.646;2024-01-16T03:40:55;3.3;72.6
79187;SHT31;68762;51.980;5.646;2024-01-16T03:43:23;3.3;72.6
79187;SHT31;68762;51.980;5.646;2024-01-16T03:45:52;3.3;72.5
79187;SHT31;68762;51.980;5.646;2024-01-16T03:48:20;3.3;72.5
79187;SHT31;68762;51.980;5.646;2024-01-16T03:50:49;3.3;72.6
79187;SHT31;68762;51.980;5.646;2024-01-16T03:53:17;3.3;72.6
79187;SHT31;68762;51.980;5.646;2024-01-16T03:55:47;3.3;72.6
79187;SHT31;68762;51.980;5.646;2024-01-16T03:58:16;3.3;72.7
79187;SHT31;68762;51.980;5.646;2024-01-16T04:00:45;3.3;72.7
79187;SHT31;68762;51.980;5.646;2024-01-16T04:03:17;3.3;72.8
79187;SHT31;68762;51.980;5.646;2024-01-16T04:05:45;3.3;72.8
79187;SHT31;68762;51.980;5.646;2024-01-16T04:08:14;3.3;72.7
79187;SHT31;68762;51.980;5.646;2024-01-16T04:10:43;3.3;72.7
79187;SHT31;68762;51.980;5.646;2024-01-16T04:13:11;3.3;72.6
79187;SHT31;68762;51.980;5.646;2024-01-16T04:15:40;3.3;72.5
79187;SHT31;68762;51.980;5.646;2024-01-16T04:18:11;3.3;72.5
79187;SHT31;68762;51.980;5.646;2024-01-16T04:20:39;3.3;72.5
79187;SHT31;68762;51.980;5.646;2024-01-16T04:23:08;3.3;72.3
79187;SHT31;68762;51.980;5.646;2024-01-16T04:25:38;3.3;72.1
79187;SHT31;68762;51.980;5.646;2024-01-16T04:28:06;3.3;72.0
79187;SHT31;68762;51.980;5.646;2024-01-16T04:30:35;3.3;71.9
79187;SHT31;68762;51.980;5.646;2024-01-16T04:33:05;3.3;71.8
79187;SHT31;68762;51.980;5.646;2024-01-16T04:35:33;3.3;71.8
79187;SHT31;68762;51.980;5.646;2024-01-16T04:38:02;3.3;71.7
79187;SHT31;68762;51.980;5.646;2024-01-16T04:40:31;3.2;71.7
79187;SHT31;68762;51.980;5.646;2024-01-16T04:43:00;3.2;71.7
79187;SHT31;68762;51.980;5.646;2024-01-16T04:45:29;3.2;71.7
79187;SHT31;68762;51.980;5.646;2024-01-16T04:47:57;3.2;71.8
79187;SHT31;68762;51.980;5.646;2024-01-16T04:50:26;3.2;72.0
79187;SHT31;68762;51.980;5.646;2024-01-16T04:52:58;3.2;72.1
79187;SHT31;68762;51.980;5.646;2024-01-16T04:55:28;3.2;72.2
79187;SHT31;68762;51.980;5.646;2024-01-16T04:57:57;3.2;72.2
79187;SHT31;68762;51.980;5.646;2024-01-16T05:00:26;3.2;72.4
79187;SHT31;68762;51.980;5.646;2024-01-16T05:02:55;3.2;72.7
79187;SHT31;68762;51.980;5.646;2024-01-16T05:05:23;3.2;72.8
79187;SHT31;68762;51.980;5.646;2024-01-16T05:07:52;3.2;72.9
79187;SHT31;68762;51.980;5.646;2024-01-16T05:10:20;3.2;73.0
79187;SHT31;68762;51.980;5.646;2024-01-16T05:12:49;3.2;73.1
79187;SHT31;68762;51.980;5.646;2024-01-16T05:15:18;3.2;73.0
79187;SHT31;68762;51.980;5.646;2024-01-16T05:17:46;3.2;73.0
79187;SHT31;68762;51.980;5.646;2024-01-16T05:20:15;3.1;72.9
79187;SHT31;68762;51.980;5.646;2024-01-16T05:22:45;3.1;72.8
79187;SHT31;68762;51.980;5.646;2024-01-16T05:25:14;3.1;72.9
79187;SHT31;68762;51.980;5.646;2024-01-16T05:27:43;3.1;72.7
79187;SHT31;68762;51.980;5.646;2024-01-16T05:30:12;3.1;72.6
79187;SHT31;68762;51.980;5.646;2024-01-16T05:32:42;3.1;72.6
79187;SHT31;68762;51.980;5.646;2024-01-16T05:35:11;3.1;72.6
79187;SHT31;68762;51.980;5.646;2024-01-16T05:37:39;3.1;72.6
79187;SHT31;68762;51.980;5.646;2024-01-16T05:40:09;3.1;72.5
79187;SHT31;68762;51.980;5.646;2024-01-16T05:42:37;3.2;72.4
79187;SHT31;68762;51.980;5.646;2024-01-16T05:45:07;3.2;72.5
79187;SHT31;68762;51.980;5.646;2024-01-16T05:47:36;3.2;72.6
79187;SHT31;68762;51.980;5.646;2024-01-16T05:50:05;3.2;72.8
79187;SHT31;68762;51.980;5.646;2024-01-16T05:52:35;3.2;73.1
79187;SHT31;68762;51.980;5.646;2024-01-16T05:55:04;3.2;73.2
79187;SHT31;68762;51.980;5.646;2024-01-16T05:57:34;3.2;73.2
79187;SHT31;68762;51.980;5.646;2024-01-16T06:00:04;3.2;73.2
79187;SHT31;68762;51.980;5.646;2024-01-16T06:02:33;3.2;73.2
79187;SHT31;68762;51.980;5.646;2024-01-16T06:05:02;3.2;73.2
79187;SHT31;68762;51.980;5.646;2024-01-16T06:07:32;3.2;73.2
79187;SHT31;68762;51.980;5.646;2024-01-16T06:10:00;3.2;73.3
79187;SHT31;68762;51.980;5.646;2024-01-16T06:12:29;3.3;73.4
79187;SHT31;68762;51.980;5.646;2024-01-16T06:14:59;3.3;73.4
79187;SHT31;68762;51.980;5.646;2024-01-16T06:17:28;3.3;73.5
79187;SHT31;68762;51.980;5.646;2024-01-16T06:19:59;3.3;73.5
79187;SHT31;68762;51.980;5.646;2024-01-16T06:22:27;3.3;73.7
79187;SHT31;68762;51.980;5.646;2024-01-16T06:24:56;3.3;73.8
79187;SHT31;68762;51.980;5.646;2024-01-16T06:27:24;3.3;73.7
79187;SHT31;68762;51.980;5.646;2024-01-16T06:29:56;3.3;73.8
79187;SHT31;68762;51.980;5.646;2024-01-16T06:32:25;3.3;73.8
79187;SHT31;68762;51.980;5.646;2024-01-16T06:34:53;3.3;73.7
79187;SHT31;68762;51.980;5.646;2024-01-16T06:37:22;3.3;73.7
79187;SHT31;68762;51.980;5.646;2024-01-16T06:39:50;3.3;73.8
79187;SHT31;68762;51.980;5.646;2024-01-16T06:42:19;3.4;73.8
79187;SHT31;68762;51.980;5.646;2024-01-16T06:44:48;3.4;73.9
79187;SHT31;68762;51.980;5.646;2024-01-16T06:47:16;3.4;73.9
79187;SHT31;68762;51.980;5.646;2024-01-16T06:49:45;3.4;74.0
79187;SHT31;68762;51.980;5.646;2024-01-16T06:52:13;3.4;74.1
79187;SHT31;68762;51.980;5.646;2024-01-16T06:54:42;3.4;74.1
79187;SHT31;68762;51.980;5.646;2024-01-16T06:57:10;3.4;74.0
79187;SHT31;68762;51.980;5.646;2024-01-16T06:59:39;3.4;73.9
79187;SHT31;68762;51.980;5.646;2024-01-16T07:02:08;3.4;73.8
79187;SHT31;68762;51.980;5.646;2024-01-16T07:04:37;3.4;73.7
79187;SHT31;68762;51.980;5.646;2024-01-16T07:07:05;3.4;73.6
79187;SHT31;68762;51.980;5.646;2024-01-16T07:09:34;3.4;73.4
79187;SHT31;68762;51.980;5.646;2024-01-16T07:12:03;3.4;73.4
79187;SHT31;68762;51.980;5.646;2024-01-16T07:14:32;3.5;73.3
79187;SHT31;68762;51.980;5.646;2024-01-16T07:17:01;3.5;73.2
79187;SHT31;68762;51.980;5.646;2024-01-16T07:19:30;3.5;73.1
79187;SHT31;68762;51.980;5.646;2024-01-16T07:21:58;3.5;73.1
79187;SHT31;68762;51.980;5.646;2024-01-16T07:24:27;3.5;73.1
79187;SHT31;68762;51.980;5.646;2024-01-16T07:26:55;3.5;72.9
79187;SHT31;68762;51.980;5.646;2024-01-16T07:29:24;3.5;72.7
79187;SHT31;68762;51.980;5.646;2024-01-16T07:31:53;3.5;72.6
79187;SHT31;68762;51.980;5.646;2024-01-16T07:34:22;3.5;72.5
79187;SHT31;68762;51.980;5.646;2024-01-16T07:36:52;3.5;72.4
79187;SHT31;68762;51.980;5.646;2024-01-16T07:39:21;3.5;72.4
79187;SHT31;68762;51.980;5.646;2024-01-16T07:41:52;3.5;72.3
79187;SHT31;68762;51.980;5.646;2024-01-16T07:44:20;3.5;72.2
79187;SHT31;68762;51.980;5.646;2024-01-16T07:46:48;3.5;72.1
79187;SHT31;68762;51.980;5.646;2024-01-16T07:49:18;3.5;72.0
79187;SHT31;68762;51.980;5.646;2024-01-16T07:51:47;3.4;71.7
79187;SHT31;68762;51.980;5.646;2024-01-16T07:54:17;3.4;71.5
79187;SHT31;68762;51.980;5.646;2024-01-16T07:56:46;3.4;71.6
79187;SHT31;68762;51.980;5.646;2024-01-16T07:59:15;3.4;71.5
79187;SHT31;68762;51.980;5.646;2024-01-16T08:01:44;3.4;71.3
79187;SHT31;68762;51.980;5.646;2024-01-16T08:04:12;3.4;71.3
79187;SHT31;68762;51.980;5.646;2024-01-16T08:06:42;3.4;70.9
79187;SHT31;68762;51.980;5.646;2024-01-16T08:09:11;3.4;70.9
79187;SHT31;68762;51.980;5.646;2024-01-16T08:11:42;3.4;70.8
79187;SHT31;68762;51.980;5.646;2024-01-16T08:14:11;3.4;70.8
79187;SHT31;68762;51.980;5.646;2024-01-16T08:16:40;3.4;70.4
79187;SHT31;68762;51.980;5.646;2024-01-16T08:19:10;3.4;70.5
79187;SHT31;68762;51.980;5.646;2024-01-16T08:21:39;3.4;70.3
79187;SHT31;68762;51.980;5.646;2024-01-16T08:24:08;3.4;70.4
79187;SHT31;68762;51.980;5.646;2024-01-16T08:26:39;3.5;70.2
79187;SHT31;68762;51.980;5.646;2024-01-16T08:29:07;3.5;69.8
79187;SHT31;68762;51.980;5.646;2024-01-16T08:31:35;3.5;69.8
79187;SHT31;68762;51.980;5.646;2024-01-16T08:34:04;3.5;69.6
79187;SHT31;68762;51.980;5.646;2024-01-16T08:36:33;3.5;69.6
79187;SHT31;68762;51.980;5.646;2024-01-16T08:39:01;3.5;69.4
79187;SHT31;68762;51.980;5.646;2024-01-16T08:41:30;3.5;69.4
79187;SHT31;68762;51.980;5.646;2024-01-16T08:43:58;3.5;69.3
79187;SHT31;68762;51.980;5.646;2024-01-16T08:46:27;3.5;69.1
79187;SHT31;68762;51.980;5.646;2024-01-16T08:48:55;3.5;69.0
79187;SHT31;68762;51.980;5.646;2024-01-16T08:51:24;3.5;69.2
79187;SHT31;68762;51.980;5.646;2024-01-16T08:53:52;3.5;68.8
79187;SHT31;68762;51.980;5.646;2024-01-16T08:56:21;3.5;68.6
79187;SHT31;68762;51.980;5.646;2024-01-16T08:58:49;3.5;68.4
79187;SHT31;68762;51.980;5.646;2024-01-16T09:01:18;3.5;68.7
79187;SHT31;68762;51.980;5.646;2024-01-16T09:03:47;3.5;68.9
79187;SHT31;68762;51.980;5.646;2024-01-16T09:06:15;3.5;68.7
79187;SHT31;68762;51.980;5.646;2024-01-16T09:08:44;3.5;68.3
79187;SHT31;68762;51.980;5.646;2024-01-16T09:11:14;3.5;67.7
79187;SHT31;68762;51.980;5.646;2024-01-16T09:13:45;3.5;67.9
79187;SHT31;68762;51.980;5.646;2024-01-16T09:16:13;3.5;67.8
79187;SHT31;68762;51.980;5.646;2024-01-16T09:18:42;3.5;68.0
79187;SHT31;68762;51.980;5.646;2024-01-16T09:21:10;3.5;67.6
79187;SHT31;68762;51.980;5.646;2024-01-16T09:23:39;3.5;67.7
79187;SHT31;68762;51.980;5.646;2024-01-16T09:26:07;3.6;67.6
79187;SHT31;68762;51.980;5.646;2024-01-16T09:28:37;3.6;67.7
79187;SHT31;68762;51.980;5.646;2024-01-16T09:31:06;3.6;67.2
79187;SHT31;68762;51.980;5.646;2024-01-16T09:33:35;3.6;67.3
79187;SHT31;68762;51.980;5.646;2024-01-16T09:36:04;3.6;66.8
79187;SHT31;68762;51.980;5.646;2024-01-16T09:38:32;3.6;67.0
79187;SHT31;68762;51.980;5.646;2024-01-16T09:41:01;3.6;66.7
79187;SHT31;68762;51.980;5.646;2024-01-16T09:43:32;3.6;66.2
79187;SHT31;68762;51.980;5.646;2024-01-16T09:46:04;3.6;66.3
79187;SHT31;68762;51.980;5.646;2024-01-16T09:48:34;3.6;66.3
79187;SHT31;68762;51.980;5.646;2024-01-16T09:51:04;3.6;66.2
79187;SHT31;68762;51.980;5.646;2024-01-16T09:53:33;3.6;66.5
79187;SHT31;68762;51.980;5.646;2024-01-16T09:56:02;3.6;65.9
79187;SHT31;68762;51.980;5.646;2024-01-16T09:58:34;3.6;65.7
79187;SHT31;68762;51.980;5.646;2024-01-16T10:01:05;3.6;65.8
79187;SHT31;68762;51.980;5.646;2024-01-16T10:03:34;3.6;66.1
79187;SHT31;68762;51.980;5.646;2024-01-16T10:06:04;3.7;66.3
79187;SHT31;68762;51.980;5.646;2024-01-16T10:08:34;3.7;66.1
79187;SHT31;68762;51.980;5.646;2024-01-16T10:11:03;3.7;66.3
79187;SHT31;68762;51.980;5.646;2024-01-16T10:13:34;3.7;65.6
79187;SHT31;68762;51.980;5.646;2024-01-16T10:16:04;3.7;65.6
79187;SHT31;68762;51.980;5.646;2024-01-16T10:18:33;3.7;65.5
79187;SHT31;68762;51.980;5.646;2024-01-16T10:21:04;3.7;65.8
79187;SHT31;68762;51.980;5.646;2024-01-16T10:23:34;3.7;65.4
79187;SHT31;68762;51.980;5.646;2024-01-16T10:26:07;3.7;65.1
79187;SHT31;68762;51.980;5.646;2024-01-16T10:28:38;3.7;65.0
79187;SHT31;68762;51.980;5.646;2024-01-16T10:31:09;3.7;64.7
79187;SHT31;68762;51.980;5.646;2024-01-16T10:33:38;3.7;65.2
79187;SHT31;68762;51.980;5.646;2024-01-16T10:36:16;3.7;65.0
79187;SHT31;68762;51.980;5.646;2024-01-16T10:38:47;3.7;64.7
79187;SHT31;68762;51.980;5.646;2024-01-16T10:41:20;3.7;64.6
79187;SHT31;68762;51.980;5.646;2024-01-16T10:44:04;3.7;65.0
79187;SHT31;68762;51.980;5.646;2024-01-16T10:46:35;3.7;65.3
79187;SHT31;68762;51.980;5.646;2024-01-16T10:49:04;3.7;65.0
79187;SHT31;68762;51.980;5.646;2024-01-16T10:51:33;3.7;64.7
79187;SHT31;68762;51.980;5.646;2024-01-16T10:54:03;3.7;65.2
79187;SHT31;68762;51.980;5.646;2024-01-16T10:56:36;3.7;65.4
79187;SHT31;68762;51.980;5.646;2024-01-16T10:59:18;3.7;65.2
79187;SHT31;68762;51.980;5.646;2024-01-16T11:01:50;3.7;65.2
79187;SHT31;68762;51.980;5.646;2024-01-16T11:04:20;3.8;64.3
79187;SHT31;68762;51.980;5.646;2024-01-16T11:06:51;3.8;64.4
79187;SHT31;68762;51.980;5.646;2024-01-16T11:09:22;3.8;64.8
79187;SHT31;68762;51.980;5.646;2024-01-16T11:11:54;3.8;64.8
79187;SHT31;68762;51.980;5.646;2024-01-16T11:14:25;3.8;65.8
79187;SHT31;68762;51.980;5.646;2024-01-16T11:16:55;3.9;65.6
79187;SHT31;68762;51.980;5.646;2024-01-16T11:19:25;3.9;65.2
79187;SHT31;68762;51.980;5.646;2024-01-16T11:21:55;4.0;64.7
79187;SHT31;68762;51.980;5.646;2024-01-16T11:24:24;4.0;65.1
79187;SHT31;68762;51.980;5.646;2024-01-16T11:26:53;4.0;64.2
79187;SHT31;68762;51.980;5.646;2024-01-16T11:29:37;4.1;64.2
79187;SHT31;68762;51.980;5.646;2024-01-16T11:32:05;4.1;64.2
79187;SHT31;68762;51.980;5.646;2024-01-16T11:34:54;4.1;64.3
79187;SHT31;68762;51.980;5.646;2024-01-16T11:37:27;4.1;63.8
79187;SHT31;68762;51.980;5.646;2024-01-16T11:40:26;4.1;64.6
79187;SHT31;68762;51.980;5.646;2024-01-16T11:42:57;4.2;63.9
79187;SHT31;68762;51.980;5.646;2024-01-16T11:45:50;4.2;63.6
79187;SHT31;68762;51.980;5.646;2024-01-16T11:48:20;4.2;63.3
79187;SHT31;68762;51.980;5.646;2024-01-16T11:50:48;4.2;63.5
79187;SHT31;68762;51.980;5.646;2024-01-16T11:53:37;4.2;63.5
79187;SHT31;68762;51.980;5.646;2024-01-16T11:56:59;4.3;63.5
79187;SHT31;68762;51.980;5.646;2024-01-16T11:59:57;4.7;62.4
79187;SHT31;68762;51.980;5.646;2024-01-16T12:05:03;6.0;58.0
79187;SHT31;68762;51.980;5.646;2024-01-16T12:07:45;6.5;56.0
79187;SHT31;68762;51.980;5.646;2024-01-16T12:10:16;7.0;54.8
79187;SHT31;68762;51.980;5.646;2024-01-16T12:12:46;7.4;54.5
79187;SHT31;68762;51.980;5.646;2024-01-16T12:15:19;7.9;52.4
79187;SHT31;68762;51.980;5.646;2024-01-16T12:17:59;8.3;50.4
79187;SHT31;68762;51.980;5.646;2024-01-16T12:20:31;8.5;49.2
79187;SHT31;68762;51.980;5.646;2024-01-16T12:23:01;8.7;49.6
79187;SHT31;68762;51.980;5.646;2024-01-16T12:25:31;8.9;48.3
79187;SHT31;68762;51.980;5.646;2024-01-16T12:28:01;9.1;48.4
79187;SHT31;68762;51.980;5.646;2024-01-16T12:30:32;9.3;47.5
79187;SHT31;68762;51.980;5.646;2024-01-16T12:33:08;9.4;47.1
79187;SHT31;68762;51.980;5.646;2024-01-16T12:35:40;9.6;46.0
79187;SHT31;68762;51.980;5.646;2024-01-16T12:38:10;9.7;46.4
79187;SHT31;68762;51.980;5.646;2024-01-16T12:40:41;9.8;45.0
79187;SHT31;68762;51.980;5.646;2024-01-16T12:43:13;9.8;45.4
79187;SHT31;68762;51.980;5.646;2024-01-16T12:45:42;9.7;45.7
79187;SHT31;68762;51.980;5.646;2024-01-16T12:48:11;9.6;45.0
79187;SHT31;68762;51.980;5.646;2024-01-16T12:50:40;9.5;45.8
79187;SHT31;68762;51.980;5.646;2024-01-16T12:53:10;9.4;45.5
79187;SHT31;68762;51.980;5.646;2024-01-16T12:55:40;9.4;45.6
79187;SHT31;68762;51.980;5.646;2024-01-16T12:58:19;9.4;46.1
79187;SHT31;68762;51.980;5.646;2024-01-16T13:00:51;9.5;46.8
79187;SHT31;68762;51.980;5.646;2024-01-16T13:03:25;9.7;45.7
79187;SHT31;68762;51.980;5.646;2024-01-16T13:05:57;9.9;45.0
79187;SHT31;68762;51.980;5.646;2024-01-16T13:08:27;10.1;44.7
79187;SHT31;68762;51.980;5.646;2024-01-16T13:11:14;10.3;44.3
79187;SHT31;68762;51.980;5.646;2024-01-16T13:13:47;10.4;44.9
79187;SHT31;68762;51.980;5.646;2024-01-16T13:16:17;10.6;43.2
79187;SHT31;68762;51.980;5.646;2024-01-16T13:18:46;10.7;42.5
79187;SHT31;68762;51.980;5.646;2024-01-16T13:21:14;10.7;41.8
79187;SHT31;68762;51.980;5.646;2024-01-16T13:23:43;10.7;41.4
79187;SHT31;68762;51.980;5.646;2024-01-16T13:26:12;10.6;41.3
79187;SHT31;68762;51.980;5.646;2024-01-16T13:28:42;10.4;42.2
79187;SHT31;68762;51.980;5.646;2024-01-16T13:31:16;10.1;43.4
79187;SHT31;68762;51.980;5.646;2024-01-16T13:33:46;10.0;42.5
79187;SHT31;68762;51.980;5.646;2024-01-16T13:36:15;9.9;43.0
79187;SHT31;68762;51.980;5.646;2024-01-16T13:38:43;9.8;43.1
79187;SHT31;68762;51.980;5.646;2024-01-16T13:41:12;9.8;43.7
79187;SHT31;68762;51.980;5.646;2024-01-16T13:43:41;9.8;43.7
79187;SHT31;68762;51.980;5.646;2024-01-16T13:46:09;9.8;44.7
79187;SHT31;68762;51.980;5.646;2024-01-16T13:48:40;9.8;43.0
79187;SHT31;68762;51.980;5.646;2024-01-16T13:51:09;9.7;43.6
79187;SHT31;68762;51.980;5.646;2024-01-16T13:53:37;9.5;44.3
79187;SHT31;68762;51.980;5.646;2024-01-16T13:56:06;9.3;44.4
79187;SHT31;68762;51.980;5.646;2024-01-16T13:58:35;9.1;44.8
79187;SHT31;68762;51.980;5.646;2024-01-16T14:01:03;8.9;43.9
79187;SHT31;68762;51.980;5.646;2024-01-16T14:03:32;8.8;44.3
79187;SHT31;68762;51.980;5.646;2024-01-16T14:06:01;8.7;45.4
79187;SHT31;68762;51.980;5.646;2024-01-16T14:08:30;8.7;44.9
79187;SHT31;68762;51.980;5.646;2024-01-16T14:10:59;8.7;45.2
79187;SHT31;68762;51.980;5.646;2024-01-16T14:13:28;8.7;45.2
79187;SHT31;68762;51.980;5.646;2024-01-16T14:15:56;8.7;44.5
79187;SHT31;68762;51.980;5.646;2024-01-16T14:18:25;8.7;45.0
79187;SHT31;68762;51.980;5.646;2024-01-16T14:20:54;8.8;45.3
79187;SHT31;68762;51.980;5.646;2024-01-16T14:23:22;8.8;45.0
79187;SHT31;68762;51.980;5.646;2024-01-16T14:25:51;8.8;44.5
79187;SHT31;68762;51.980;5.646;2024-01-16T14:28:19;8.6;44.9
79187;SHT31;68762;51.980;5.646;2024-01-16T14:30:52;8.4;46.0
79187;SHT31;68762;51.980;5.646;2024-01-16T14:33:21;8.2;46.1
79187;SHT31;68762;51.980;5.646;2024-01-16T14:35:50;7.9;47.3
79187;SHT31;68762;51.980;5.646;2024-01-16T14:38:21;7.7;47.0
79187;SHT31;68762;51.980;5.646;2024-01-16T14:40:49;7.6;47.6
79187;SHT31;68762;51.980;5.646;2024-01-16T14:43:20;7.4;48.2
79187;SHT31;68762;51.980;5.646;2024-01-16T14:45:48;7.2;48.5
79187;SHT31;68762;51.980;5.646;2024-01-16T14:48:17;7.1;49.7
79187;SHT31;68762;51.980;5.646;2024-01-16T14:50:46;6.9;49.7
79187;SHT31;68762;51.980;5.646;2024-01-16T14:53:17;6.8;50.2
79187;SHT31;68762;51.980;5.646;2024-01-16T14:55:46;6.7;50.7
79187;SHT31;68762;51.980;5.646;2024-01-16T14:58:15;6.5;51.3
79187;SHT31;68762;51.980;5.646;2024-01-16T15:00:45;6.4;51.4
79187;SHT31;68762;51.980;5.646;2024-01-16T15:03:15;6.3;51.8
79187;SHT31;68762;51.980;5.646;2024-01-16T15:05:47;6.2;52.8
79187;SHT31;68762;51.980;5.646;2024-01-16T15:08:15;6.1;53.3
79187;SHT31;68762;51.980;5.646;2024-01-16T15:10:44;6.0;53.7
79187;SHT31;68762;51.980;5.646;2024-01-16T15:13:14;5.9;53.5
79187;SHT31;68762;51.980;5.646;2024-01-16T15:15:42;5.9;53.6
79187;SHT31;68762;51.980;5.646;2024-01-16T15:18:11;5.8;54.0
79187;SHT31;68762;51.980;5.646;2024-01-16T15:20:40;5.7;54.2
79187;SHT31;68762;51.980;5.646;2024-01-16T15:23:10;5.6;54.5
79187;SHT31;68762;51.980;5.646;2024-01-16T15:25:39;5.6;55.0
79187;SHT31;68762;51.980;5.646;2024-01-16T15:28:08;5.5;55.2
79187;SHT31;68762;51.980;5.646;2024-01-16T15:30:36;5.4;55.3
79187;SHT31;68762;51.980;5.646;2024-01-16T15:33:09;5.3;55.5
79187;SHT31;68762;51.980;5.646;2024-01-16T15:35:37;5.3;56.0
79187;SHT31;68762;51.980;5.646;2024-01-16T15:38:06;5.2;56.3
79187;SHT31;68762;51.980;5.646;2024-01-16T15:40:37;5.2;56.3
79187;SHT31;68762;51.980;5.646;2024-01-16T15:43:05;5.1;56.3
79187;SHT31;68762;51.980;5.646;2024-01-16T15:45:34;5.0;57.1
79187;SHT31;68762;51.980;5.646;2024-01-16T15:48:03;5.0;56.6
79187;SHT31;68762;51.980;5.646;2024-01-16T15:50:31;4.9;57.1
79187;SHT31;68762;51.980;5.646;2024-01-16T15:53:01;4.9;57.2
79187;SHT31;68762;51.980;5.646;2024-01-16T15:55:31;4.8;57.2
79187;SHT31;68762;51.980;5.646;2024-01-16T15:57:59;4.8;57.1
79187;SHT31;68762;51.980;5.646;2024-01-16T16:00:30;4.7;57.3
79187;SHT31;68762;51.980;5.646;2024-01-16T16:02:59;4.7;57.7
79187;SHT31;68762;51.980;5.646;2024-01-16T16:05:28;4.6;57.6
79187;SHT31;68762;51.980;5.646;2024-01-16T16:07:56;4.6;57.9
79187;SHT31;68762;51.980;5.646;2024-01-16T16:10:25;4.6;57.8
79187;SHT31;68762;51.980;5.646;2024-01-16T16:12:54;4.5;58.0
79187;SHT31;68762;51.980;5.646;2024-01-16T16:15:23;4.5;58.0
79187;SHT31;68762;51.980;5.646;2024-01-16T16:17:53;4.5;58.2
79187;SHT31;68762;51.980;5.646;2024-01-16T16:20:22;4.5;58.5
79187;SHT31;68762;51.980;5.646;2024-01-16T16:22:51;4.4;58.3
79187;SHT31;68762;51.980;5.646;2024-01-16T16:25:21;4.4;58.7
79187;SHT31;68762;51.980;5.646;2024-01-16T16:27:49;4.4;58.4
79187;SHT31;68762;51.980;5.646;2024-01-16T16:30:18;4.4;58.9
79187;SHT31;68762;51.980;5.646;2024-01-16T16:32:48;4.4;59.2
79187;SHT31;68762;51.980;5.646;2024-01-16T16:35:17;4.4;58.8
79187;SHT31;68762;51.980;5.646;2024-01-16T16:37:46;4.4;59.2